Springlake, Texas
Current Conditions -  °F | °C
As of 10:35 PM on Saturday 22 Nov 2014 (Local Time) from KPVW Reporting Station
Clear Clear  
Wind Chill: 40°   Ceiling: Unl
Heat Index: 45°   Visibility: 10mi
Dew Point: 39°   Wind: 8mph
Humidity: 80%   Direction: 200°SSW
Pressure: 29.68"   Gusts: NA
Location:  34.23°N, 102.31°W
Report Text: KPVW 230435Z AUTO 20007KT 10SM CLR 07/04 A2968 RMK AO2 T00710039 TSNO
Loading
Personal Weather Stations






























Interactive Weather Map New forecast layout! Learn more

10-Day Weather Forecast

Advertisements
Track Severe Weather on mobile